Latest Weather Observations for Eucla

IDW60801

Issued at 6:32 am WST Sunday 1 March 2015 (issued every 30 minutes, with the page automatically refreshed every 10 minutes)

About weather observations | Map of weather stations | Latest weather observations for WA | Other Formats
Station Details ID: 011003 Name: EUCLA Lat: -31.68 Lon: 128.90 Height: 93.1 m
Data from the previous 72 hours. | See also: Recent months at Eucla
Date/Time
WST
Temp
°C
App
Temp
°C
Dew
Point
Rel
Hum
%
Delta-T
°C
Wind Press
QNH
hPa
Press
MSL
hPa
Rain
since 9 am
mm
Dir
 
Spd
km/h
Gust
km/h
Spd
kts
Gust
kts
01/06:30am 18.1 15.5 9.2 56 4.7 ESE 13 17 7 9 1018.7 1018.4 0.0
01/06:00am 17.5 15.4 9.7 60 4.1 SE 11 17 6 9 1018.4 1018.1 0.0
01/05:30am 17.2 15.3 9.1 59 4.2 SE 9 13 5 7 1018.1 1017.8 0.0
01/05:00am 17.5 14.9 9.4 59 4.2 SSE 13 22 7 12 1017.6 1017.3 0.0
01/04:30am 17.1 15.1 10.0 63 3.8 SE 11 17 6 9 1017.4 1017.1 0.0
01/04:00am 16.7 14.5 10.8 68 3.2 SE 13 19 7 10 1017.3 1017.0 0.0
01/03:30am 16.9 15.0 10.5 66 3.4 SSE 11 17 6 9 1017.2 1016.9 0.0
01/03:00am 17.4 15.2 10.8 65 3.6 SSE 13 20 7 11 1017.2 1016.9 0.0
01/02:30am 17.6 15.6 11.4 67 3.4 SE 13 22 7 12 1017.0 1016.7 0.0
01/02:00am 17.6 15.6 11.6 68 3.3 SE 13 19 7 10 1016.8 1016.5 0.0
01/01:30am 17.5 15.4 11.3 67 3.4 SE 13 20 7 11 1016.6 1016.3 0.0
01/01:00am 17.5 15.3 12.0 70 3.0 SE 15 20 8 11 1016.5 1016.2 0.0
01/12:30am 17.4 15.4 11.4 68 3.3 SE 13 20 7 11 1016.8 1016.5 0.0
01/12:00am 17.6 15.8 12.1 70 3.0 SE 13 24 7 13 1017.1 1016.8 0.0
 
Date/Time
WST
Temp
°C
App
Temp
°C
Dew
Point
Rel
Hum
%
Delta-T
°C
Wind Press
QNH
hPa
Press
MSL
hPa
Rain
since 9 am
mm
Dir
 
Spd
km/h
Gust
km/h
Spd
kts
Gust
kts
28/11:30pm 17.8 15.9 11.8 68 3.3 SE 13 20 7 11 1017.3 1017.0 0.0
28/11:00pm 18.3 15.9 12.7 70 3.1 SE 17 28 9 15 1017.7 1017.4 0.0
28/10:30pm 18.6 16.5 13.7 73 2.8 SE 17 28 9 15 1017.6 1017.3 0.0
28/10:00pm 18.4 16.5 13.0 71 3.0 SE 15 22 8 12 1017.9 1017.6 0.0
28/09:30pm 18.6 16.2 12.8 69 3.3 SE 17 26 9 14 1018.3 1018.0 0.0
28/09:00pm 18.9 16.7 13.3 70 3.2 SE 17 26 9 14 1018.2 1017.9 0.0
28/08:30pm 19.0 16.5 14.1 73 2.8 SSE 20 30 11 16 1018.1 1017.8 0.0
28/08:00pm 18.7 15.9 14.4 76 2.5 SSE 22 33 12 18 1017.8 1017.5 0.0
28/07:30pm 18.9 16.4 15.2 79 2.2 SSE 22 35 12 19 1017.4 1017.1 0.0
28/07:00pm 19.3 17.1 15.0 76 2.5 SE 20 32 11 17 1017.1 1016.8 0.0
28/06:30pm 18.9 17.9 15.6 81 2.0 SE 15 24 8 13 1016.8 1016.5 0.0
28/06:00pm 19.9 18.2 14.7 72 3.0 SSE 17 26 9 14 1016.6 1016.3 0.0
28/05:30pm 19.9 17.4 14.0 69 3.4 SSE 20 28 11 15 1016.4 1016.1 0.0
28/05:00pm 20.8 17.9 14.0 65 3.9 SSE 22 35 12 19 1016.0 1015.7 0.0
28/04:30pm 21.4 18.5 14.1 63 4.3 SSE 22 33 12 18 1016.0 1015.7 0.0
28/04:00pm 22.0 18.6 13.6 59 4.9 SSE 24 35 13 19 1015.7 1015.4 0.0
28/03:30pm 22.3 19.0 13.9 59 4.9 SSE 24 39 13 21 1015.5 1015.2 0.0
28/03:00pm 23.3 19.3 14.0 56 5.5 SSE 28 39 15 21 1015.1 1014.8 0.0
28/02:30pm 23.1 19.2 14.4 58 5.1 SSE 28 41 15 22 1014.9 1014.6 0.0
28/02:03pm 21.9 18.1 14.8 64 4.2 SSE 28 48 15 26 1014.7 1014.4 0.0
28/02:00pm 22.5 19.0 15.4 64 4.3 SSE 28 43 15 23 1014.7 1014.4 0.0
28/01:30pm 21.8 18.3 15.4 67 3.8 S 28 48 15 26 1014.4 1014.1 0.0
28/01:00pm 23.3 20.3 15.9 63 4.5 SSE 26 43 14 23 1014.5 1014.2 0.0
28/12:30pm 23.0 20.2 16.3 66 4.1 S 26 41 14 22 1014.3 1014.0 0.0
28/12:00pm 23.9 21.2 16.7 64 4.4 S 26 39 14 21 1014.0 1013.7 0.0
28/11:30am 22.2 20.1 17.1 73 3.1 S 24 37 13 20 1013.8 1013.5 0.0
28/11:00am 21.2 19.6 17.4 79 2.3 S 22 35 12 19 1013.8 1013.5 0.0
28/10:30am 21.3 19.4 17.7 80 2.2 S 24 37 13 20 1013.6 1013.3 0.0
28/10:00am 22.3 20.7 18.3 78 2.5 S 24 39 13 21 1013.2 1012.8 0.0
28/09:30am 21.6 20.0 18.4 82 2.0 S 24 35 13 19 1012.8 1012.4 0.0
28/09:00am 21.6 20.6 18.8 84 1.8 S 22 35 12 19 1012.3 1011.9 0.0
28/08:30am 21.5 20.3 18.5 83 1.9 S 22 37 12 20 1012.0 1011.6 0.0
28/08:00am 22.1 21.4 19.5 85 1.7 S 22 35 12 19 1011.6 1011.2 0.0
28/07:30am 22.2 22.0 19.4 84 1.8 SSW 19 32 10 17 1010.9 1010.5 0.0
28/07:00am 22.5 22.3 19.3 82 2.0 S 19 28 10 15 1010.5 1010.1 0.0
28/06:30am 21.7 21.9 19.4 87 1.5 SSW 17 28 9 15 1010.1 1009.7 0.0
28/06:00am 21.5 21.4 19.6 89 1.2 SSW 19 30 10 16 1009.6 1009.2 0.0
28/05:30am 21.4 21.7 19.7 90 1.1 SSW 17 28 9 15 1009.1 1008.7 0.0
28/05:00am 21.0 21.6 19.5 91 1.0 SW 15 19 8 10 1008.6 1008.2 0.0
28/04:30am 21.2 22.3 19.7 91 1.0 SW 13 17 7 9 1008.4 1008.0 0.0
28/04:00am 21.2 22.2 19.5 90 1.1 WSW 13 19 7 10 1008.0 1007.6 0.0
28/03:30am 21.2 22.5 19.3 89 1.2 SW 11 17 6 9 1007.2 1006.9 0.0
28/03:00am 21.5 23.1 19.1 86 1.5 WSW 9 15 5 8 1006.9 1006.6 0.0
28/02:30am 21.5 22.5 18.7 84 1.8 SW 11 15 6 8 1006.5 1006.2 0.0
28/02:00am 21.6 23.1 18.0 80 2.3 SW 7 11 4 6 1006.3 1006.0 0.0
28/01:30am 21.7 22.4 17.1 75 2.8 SW 9 11 5 6 1005.9 1005.6 0.0
28/01:00am 21.8 22.3 16.5 72 3.2 SW 9 9 5 5 1005.8 1005.5 0.0
28/12:30am 22.8 23.7 16.6 68 3.8 W 7 9 4 5 1005.9 1005.6 0.0
28/12:00am 23.3 23.8 16.6 66 4.1 WNW 9 11 5 6 1006.1 1005.8 0.0
 
Date/Time
WST
Temp
°C
App
Temp
°C
Dew
Point
Rel
Hum
%
Delta-T
°C
Wind Press
QNH
hPa
Press
MSL
hPa
Rain
since 9 am
mm
Dir
 
Spd
km/h
Gust
km/h
Spd
kts
Gust
kts
27/11:30pm 23.6 22.6 16.6 65 4.3 WNW 17 24 9 13 1006.6 1006.3 0.0
27/11:00pm 23.0 22.8 15.6 63 4.5 N 11 13 6 7 1005.5 1005.2 0.0
27/10:30pm 22.5 23.7 17.4 73 3.2 W 7 11 4 6 1005.8 1005.5 0.0
27/10:00pm 22.9 24.9 16.9 69 3.7 N 2 9 1 5 1006.4 1006.1 0.0
27/09:30pm 23.0 24.8 15.6 63 4.5 CALM 0 0 0 0 1006.1 1005.8 0.0
27/09:00pm 23.4 24.0 15.7 62 4.7 E 7 9 4 5 1005.8 1005.5 0.0
27/08:30pm 23.6 23.7 15.4 60 4.9 ENE 9 11 5 6 1005.4 1005.1 0.0
27/08:00pm 24.0 23.9 16.0 61 4.9 ESE 11 17 6 9 1005.2 1004.9 0.0
27/07:30pm 23.7 23.1 15.7 61 4.8 ESE 13 17 7 9 1005.3 1005.0 0.0
27/07:00pm 23.4 23.2 15.7 62 4.7 ESE 11 15 6 8 1004.4 1004.1 0.0
27/06:30pm 22.7 22.9 17.6 73 3.2 ESE 13 19 7 10 1004.1 1003.8 0.0
27/06:00pm 22.7 23.4 18.0 75 3.0 SE 11 15 6 8 1003.7 1003.3 0.0
27/05:30pm 23.8 24.1 18.0 70 3.6 SE 13 20 7 11 1003.4 1003.0 0.0
27/05:00pm 24.5 24.8 18.0 67 4.1 SE 13 24 7 13 1003.1 1002.7 0.0
27/04:30pm 25.6 25.5 17.8 62 4.9 SE 15 20 8 11 1003.1 1002.7 0.0
27/04:00pm 26.5 26.3 17.6 58 5.6 SE 15 22 8 12 1003.1 1002.7 0.0
27/03:30pm 27.6 27.1 17.7 54 6.3 SE 17 24 9 13 1003.1 1002.7 0.0
27/03:00pm 27.9 27.1 17.1 51 6.8 SE 17 24 9 13 1002.9 1002.5 0.0
27/02:30pm 28.4 27.4 16.7 49 7.3 SE 17 24 9 13 1002.8 1002.4 0.0
27/02:00pm 28.1 28.1 17.3 52 6.8 SE 13 17 7 9 1002.8 1002.4 0.0
27/01:30pm 27.0 26.2 17.2 55 6.2 SSE 17 24 9 13 1002.9 1002.5 0.0
27/01:22pm 28.8 28.0 17.0 49 7.4 SSE 17 22 9 12 1002.9 1002.5 0.0
27/01:00pm 34.3 32.9 17.1 36 11.1 WNW 20 44 11 24 1002.8 1002.4 0.0
27/12:30pm 35.6 33.7 16.8 32 12.1 NW 22 35 12 19 1003.2 1002.8 0.0
27/12:00pm 35.4 33.5 16.7 33 12.0 NW 22 39 12 21 1003.3 1002.9 0.0
27/11:30am 35.0 33.5 16.8 34 11.7 NW 20 35 11 19 1003.7 1003.3 0.0
27/11:00am 34.2 32.4 17.0 36 11.1 NW 22 33 12 18 1004.0 1003.7 0.0
27/10:30am 35.4 33.7 17.1 33 11.8 NNW 22 37 12 20 1004.6 1004.3 0.0
27/10:00am 33.9 32.4 16.7 35 11.0 NNW 20 32 11 17 1005.1 1004.8 0.0
27/09:30am 31.5 29.5 15.0 36 10.2 N 19 30 10 16 1005.4 1005.1 0.0
27/09:00am 29.5 28.3 16.0 44 8.4 N 17 28 9 15 1005.6 1005.3 0.8
27/08:30am 26.9 26.7 16.8 54 6.3 N 13 19 7 10 1005.8 1005.5 0.8
27/08:00am 24.9 25.0 16.6 60 5.1 N 11 17 6 9 1005.9 1005.6 0.8
27/07:30am 23.7 23.7 16.2 63 4.6 NNE 11 15 6 8 1005.9 1005.6 0.8
27/07:00am 22.8 21.9 14.9 61 4.7 NNE 13 17 7 9 1006.1 1005.8 0.8
27/06:30am 21.1 21.2 15.6 71 3.3 NE 9 11 5 6 1006.3 1006.0 0.8
27/06:00am 20.3 21.2 16.1 77 2.5 ENE 6 7 3 4 1006.9 1006.6 0.8
27/05:30am 19.7 21.7 16.0 79 2.2 CALM 0 0 0 0 1007.1 1006.8 0.8
27/05:00am 19.6 20.2 15.9 79 2.2 ESE 7 11 4 6 1007.0 1006.7 0.8
27/04:30am 19.8 20.5 14.6 72 3.0 SSW 4 9 2 5 1008.2 1007.8 0.8
27/04:00am 19.8 19.7 14.0 69 3.4 SSW 7 9 4 5 1008.5 1008.1 0.8
27/03:30am 20.2 18.4 13.4 65 3.9 WNW 15 26 8 14 1008.4 1008.0 0.6
27/03:00am 20.2 18.5 13.6 66 3.8 SW 15 20 8 11 1007.7 1007.4 0.6
27/02:30am 20.4 19.4 13.4 64 4.0 SW 11 15 6 8 1007.4 1007.1 0.4
27/02:00am 20.2 19.6 12.2 60 4.5 WSW 7 13 4 7 1007.2 1006.9 0.2
27/01:30am 25.0 20.5 2.4 23 10.9 NNW 15 26 8 14 1007.0 1006.7 0.0
27/01:00am 25.3 21.4 1.4 21 11.4 NE 11 15 6 8 1006.1 1005.8 0.0
27/12:30am 25.2 20.4 0.0 19 11.7 ENE 15 20 8 11 1005.2 1004.9 0.0
27/12:00am 25.3 20.0 -0.7 18 11.9 NE 17 24 9 13 1005.5 1005.2 0.0
 
Date/Time
WST
Temp
°C
App
Temp
°C
Dew
Point
Rel
Hum
%
Delta-T
°C
Wind Press
QNH
hPa
Press
MSL
hPa
Rain
since 9 am
mm
Dir
 
Spd
km/h
Gust
km/h
Spd
kts
Gust
kts
26/11:30pm 25.3 19.9 -1.5 17 12.1 ENE 17 28 9 15 1005.5 1005.2 0.0
26/11:00pm 25.3 20.0 -0.7 18 11.9 ENE 17 24 9 13 1005.9 1005.6 0.0
26/10:30pm 25.3 20.2 0.7 20 11.5 NE 17 26 9 14 1006.1 1005.8 0.0
26/10:00pm 25.8 21.0 0.5 19 11.9 NE 15 22 8 12 1006.8 1006.5 0.0
26/09:30pm 26.3 21.0 -0.7 17 12.4 ENE 17 26 9 14 1006.7 1006.4 0.0
26/09:00pm 26.4 21.0 -1.4 16 12.7 NE 17 26 9 14 1007.1 1006.8 0.0
26/08:30pm 26.3 21.1 -2.4 15 12.8 ENE 15 22 8 12 1007.0 1006.7 0.0
26/08:00pm 26.4 21.1 -3.2 14 13.1 ENE 15 24 8 13 1006.9 1006.6 0.0
26/07:30pm 26.9 21.6 -3.8 13 13.4 ENE 15 19 8 10 1006.8 1006.5 0.0
26/07:00pm 27.2 21.5 -3.6 13 13.6 ENE 17 26 9 14 1007.0 1006.7 0.0
26/06:30pm 27.2 21.4 -4.6 12 13.7 ENE 17 28 9 15 1006.7 1006.4 0.0
26/06:00pm 27.8 21.9 -5.3 11 14.2 E 17 24 9 13 1006.6 1006.3 0.0
26/05:30pm 28.6 22.9 -3.6 12 14.3 ENE 17 26 9 14 1006.9 1006.6 0.0
26/05:00pm 29.0 23.6 -1.2 14 14.1 E 17 26 9 14 1006.9 1006.6 0.0
26/04:30pm 29.2 24.5 0.8 16 13.7 E 15 24 8 13 1007.0 1006.7 0.0
26/04:00pm 29.2 24.0 -0.1 15 14.0 ESE 17 26 9 14 1007.1 1006.8 0.0
26/03:30pm 30.9 25.5 -4.2 10 15.8 ESE 15 24 8 13 1007.1 1006.8 0.0
26/03:00pm 32.6 27.2 -4.3 9 16.8 ESE 15 20 8 11 1007.2 1006.9 0.0
26/02:30pm 31.7 26.6 -2.3 11 15.9 ESE 15 20 8 11 1007.6 1007.3 0.0
26/02:00pm 31.1 26.0 0.5 14 14.9 SE 17 26 9 14 1008.1 1007.7 0.0
26/01:30pm 31.2 27.2 0.6 14 14.9 SE 11 15 6 8 1008.5 1008.1 0.0
26/01:00pm 31.3 26.8 -0.4 13 15.3 ESE 13 20 7 11 1008.8 1008.4 0.0
26/12:30pm 29.6 25.2 2.8 18 13.4 SE 15 22 8 12 1009.1 1008.7 0.0
26/12:00pm 29.6 26.8 6.9 24 12.2 SSE 11 19 6 10 1009.6 1009.2 0.0
26/11:30am 32.2 28.6 8.4 23 13.3 NW 17 28 9 15 1009.9 1009.5 0.0
26/11:00am 34.9 29.3 -2.6 9 17.8 NNW 17 28 9 15 1010.5 1010.1 0.0
26/10:58am 35.0 29.3 -4.1 8 18.1 NNW 17 28 9 15 1010.6 1010.2 0.0
26/10:30am 29.9 28.2 7.7 25 12.1 SSE 6 11 3 6 1011.0 1010.6 0.0
26/10:00am 26.9 25.1 9.3 33 9.7 ESE 9 11 5 6 1011.3 1010.9 0.0
26/09:30am 26.3 24.0 7.4 30 10.1 SSE 9 11 5 6 1011.9 1011.5 0.0
26/09:00am 26.4 24.2 7.9 31 10.0 SSE 9 13 5 7 1012.1 1011.7 0.0
26/08:30am 29.3 25.3 -5.4 10 15.1 NNE 7 11 4 6 1011.9 1011.5 0.0
26/08:00am 28.6 24.2 -6.0 10 14.8 NNE 9 17 5 9 1011.8 1011.4 0.0
26/07:30am 27.7 21.6 -4.3 12 14.0 NNE 19 30 10 16 1011.1 1010.7 0.0
26/07:00am 26.1 19.6 -2.5 15 12.7 N 22 32 12 17 1011.0 1010.6 0.0

Other Formats:

Comma delimited format used in spreadsheet applications
http://www.bom.gov.au/fwo/IDW60801/IDW60801.94647.axf

JavaScript Object Notation format (JSON) in row-major order
http://www.bom.gov.au/fwo/IDW60801/IDW60801.94647.json